Terminal Aerodrome Forecast
Issued by NWS

Home | Current Version | Previous Version | Graphics & Text | Print | Product List | Glossary On
Versions: 1 2 3 4 5 6 7 8 9 10 11 12 13 14
000
FTUS43 KTOP 251000 AAA
TAFMHK
TAF AMD
KMHK 251017Z 2510/2606 22012KT P6SM SCT250
     FM251300 19018G26KT P6SM FEW050 SCT200
     FM260100 18011KT P6SM BKN100=

USA.gov is the U.S. government's official web portal to all federal, state and local government web resources and services.